createdAt,value
2019-03-17T00:04:31.511Z,4.83
2019-03-17T00:07:14.036Z,4.73
2019-03-17T00:10:01.963Z,5.80
2019-03-17T00:12:49.868Z,5.30
2019-03-17T00:15:30.856Z,4.97
2019-03-17T00:18:11.800Z,5.13
2019-03-17T00:20:40.411Z,5.17
2019-03-17T00:23:28.608Z,5.10
2019-03-17T00:26:16.495Z,5.13
2019-03-17T00:29:04.447Z,5.40
2019-03-17T00:31:52.604Z,5.83
2019-03-17T00:34:44.305Z,4.70
2019-03-17T00:37:10.834Z,4.70
2019-03-17T00:39:39.430Z,5.20
2019-03-17T00:42:27.605Z,5.30
2019-03-17T00:45:15.777Z,5.00
2019-03-17T00:48:03.713Z,4.90
2019-03-17T00:50:51.635Z,4.90
2019-03-17T00:53:20.468Z,4.73
2019-03-17T00:55:49.310Z,4.90
2019-03-17T00:58:37.536Z,5.43
2019-03-17T01:01:25.570Z,5.00
2019-03-17T01:04:13.668Z,5.27
2019-03-17T01:07:01.850Z,5.23
2019-03-17T01:09:30.765Z,5.20
2019-03-17T01:12:18.739Z,5.27
2019-03-17T01:14:47.327Z,5.17
2019-03-17T01:17:15.922Z,4.90
2019-03-17T01:20:03.975Z,5.00
2019-03-17T01:22:32.598Z,4.83
2019-03-17T01:25:20.602Z,5.33
2019-03-17T01:28:08.603Z,4.43
2019-03-17T01:30:56.656Z,5.53
2019-03-17T01:33:44.795Z,5.40
2019-03-17T01:36:32.837Z,6.20
2019-03-17T01:39:20.768Z,5.03
2019-03-17T01:42:08.742Z,5.27
2019-03-17T01:44:58.221Z,5.20
2019-03-17T01:47:46.173Z,5.43
2019-03-17T01:50:34.116Z,5.27
2019-03-17T01:53:21.723Z,5.87
2019-03-17T01:55:50.287Z,6.20
2019-03-17T01:58:18.873Z,6.17
2019-03-17T02:00:47.456Z,5.60
2019-03-17T02:03:35.679Z,5.50
2019-03-17T02:06:23.611Z,5.80
2019-03-17T02:09:11.563Z,5.30
2019-03-17T02:11:40.240Z,5.53
2019-03-17T02:14:28.171Z,5.97
2019-03-17T02:17:09.305Z,6.00
2019-03-17T02:19:37.920Z,5.70
2019-03-17T02:22:25.857Z,5.00
2019-03-17T02:25:13.814Z,5.20
2019-03-17T02:28:02.044Z,6.03
2019-03-17T02:30:49.969Z,5.20
2019-03-17T02:33:37.897Z,5.10
2019-03-17T02:36:25.812Z,5.73
2019-03-17T02:39:14.006Z,5.60
2019-03-17T02:41:42.601Z,5.40
2019-03-17T02:44:30.733Z,5.20
2019-03-17T02:47:18.713Z,5.90
2019-03-17T02:50:06.770Z,6.00
2019-03-17T02:52:54.935Z,5.23
2019-03-17T02:55:43.118Z,5.30
2019-03-17T02:58:31.040Z,5.90
2019-03-17T03:01:19.045Z,5.50
2019-03-17T03:03:47.639Z,4.60
2019-03-17T03:06:16.235Z,4.90
2019-03-17T03:09:24.948Z,4.53
2019-03-17T03:12:13.117Z,5.13
2019-03-17T03:15:01.317Z,4.90
2019-03-17T03:17:30.028Z,5.20
2019-03-17T03:19:58.933Z,4.37
2019-03-17T03:22:46.877Z,4.67
2019-03-17T03:25:15.845Z,4.73
2019-03-17T03:28:03.751Z,4.30
2019-03-17T03:30:51.756Z,4.30
2019-03-17T03:33:20.411Z,4.17
2019-03-17T03:36:11.387Z,4.10
2019-03-17T03:38:58.116Z,4.17
2019-03-17T03:41:46.102Z,4.03
2019-03-17T03:44:34.149Z,4.63
2019-03-17T03:47:22.372Z,3.77
2019-03-17T03:50:10.499Z,3.67
2019-03-17T03:52:58.452Z,3.50
2019-03-17T03:55:27.012Z,4.30
2019-03-17T03:57:55.652Z,3.93
2019-03-17T04:00:43.854Z,3.30
2019-03-17T04:03:31.922Z,3.27
2019-03-17T04:06:00.701Z,3.80
2019-03-17T04:09:00.994Z,3.60
2019-03-17T04:11:38.780Z,3.53
2019-03-17T04:14:26.791Z,3.70
2019-03-17T04:17:07.841Z,3.47
2019-03-17T04:19:49.183Z,3.00
2019-03-17T04:22:17.848Z,3.40
2019-03-17T04:25:06.093Z,3.27
2019-03-17T04:27:54.004Z,3.23
2019-03-17T04:30:41.959Z,3.63
2019-03-17T04:33:29.884Z,3.60
2019-03-17T04:35:58.592Z,2.90
2019-03-17T04:38:46.526Z,3.03
2019-03-17T04:41:34.468Z,3.20
2019-03-17T04:44:22.554Z,2.77
2019-03-17T04:47:10.628Z,3.07
2019-03-17T04:49:39.228Z,3.27
2019-03-17T04:52:26.830Z,3.03
2019-03-17T04:55:14.371Z,3.37
2019-03-17T04:57:43.239Z,3.00
2019-03-17T05:00:31.132Z,3.10
2019-03-17T05:03:00.061Z,2.63
2019-03-17T05:05:47.988Z,3.00
2019-03-17T05:08:36.329Z,2.73
2019-03-17T05:11:24.276Z,3.03
2019-03-17T05:17:12.823Z,2.83
2019-03-17T05:19:53.725Z,2.97
2019-03-17T05:22:34.765Z,3.00
2019-03-17T05:25:15.832Z,2.50
2019-03-17T05:27:56.609Z,2.97
2019-03-17T05:30:25.287Z,2.60
2019-03-17T05:33:13.221Z,2.70
2019-03-17T05:35:42.565Z,2.60
2019-03-17T05:38:11.474Z,2.53
2019-03-17T05:40:40.462Z,2.43
2019-03-17T05:43:28.402Z,2.90
2019-03-17T05:46:16.331Z,2.67
2019-03-17T05:49:04.585Z,2.70
2019-03-17T05:51:52.577Z,2.40
2019-03-17T05:54:40.839Z,2.47
2019-03-17T05:57:09.427Z,2.13
2019-03-17T05:59:57.369Z,2.37
2019-03-17T06:02:45.551Z,2.47
2019-03-17T06:05:33.473Z,2.50
2019-03-17T06:08:02.565Z,2.40
2019-03-17T06:10:31.149Z,2.00
2019-03-17T06:12:59.745Z,2.30
2019-03-17T06:15:28.328Z,2.10
2019-03-17T06:18:16.273Z,2.20
2019-03-17T06:21:04.187Z,2.47
2019-03-17T06:23:52.148Z,2.20
2019-03-17T06:26:20.772Z,2.37
2019-03-17T06:28:49.355Z,2.70
2019-03-17T06:31:37.305Z,2.30
2019-03-17T06:34:25.244Z,2.20
2019-03-17T06:37:13.204Z,2.23
2019-03-17T06:40:01.345Z,2.10
2019-03-17T06:42:49.284Z,2.27
2019-03-17T06:45:37.229Z,2.10
2019-03-17T06:48:25.174Z,2.00
2019-03-17T06:51:13.176Z,2.10
2019-03-17T06:54:01.140Z,1.90
2019-03-17T06:56:49.068Z,1.90
2019-03-17T06:59:37.006Z,1.90
2019-03-17T07:02:25.171Z,1.60
2019-03-17T07:05:13.226Z,1.60
2019-03-17T07:08:01.397Z,2.10
2019-03-17T07:11:10.959Z,1.87
2019-03-17T07:13:39.028Z,1.90
2019-03-17T07:16:20.341Z,1.77
2019-03-17T07:19:00.722Z,2.07
2019-03-17T07:21:41.896Z,1.87
2019-03-17T07:24:22.646Z,1.67
2019-03-17T07:26:52.440Z,1.90
2019-03-17T07:29:40.424Z,1.83
2019-03-17T07:32:28.463Z,2.03
2019-03-17T07:34:57.345Z,1.80
2019-03-17T07:37:25.932Z,1.90
2019-03-17T07:39:54.616Z,1.67
2019-03-17T07:42:23.345Z,1.73
2019-03-17T07:45:11.314Z,1.40
2019-03-17T07:47:59.264Z,1.80
2019-03-17T07:50:47.187Z,1.83
2019-03-17T07:53:35.109Z,2.00
2019-03-17T07:56:23.159Z,2.10
2019-03-17T07:59:22.746Z,2.13
2019-03-17T08:02:01.332Z,2.03
2019-03-17T08:04:49.251Z,1.60
2019-03-17T08:07:19.456Z,1.70
2019-03-17T08:10:08.270Z,1.63
2019-03-17T08:12:56.294Z,2.07
2019-03-17T08:15:24.924Z,1.73
2019-03-17T08:18:06.289Z,1.60
2019-03-17T08:20:47.639Z,1.60
2019-03-17T08:23:28.888Z,1.67
2019-03-17T08:26:09.619Z,1.83
2019-03-17T08:28:38.492Z,2.00
2019-03-17T08:31:07.351Z,2.03
2019-03-17T08:33:55.560Z,1.67
2019-03-17T08:36:24.180Z,1.67
2019-03-17T08:39:12.349Z,1.90
2019-03-17T08:42:00.327Z,2.00
2019-03-17T08:44:48.533Z,1.57
2019-03-17T08:47:36.712Z,2.10
2019-03-17T08:50:24.641Z,2.13
2019-03-17T08:52:53.508Z,1.57
2019-03-17T08:55:41.117Z,1.77
2019-03-17T08:58:09.967Z,1.40
2019-03-17T09:00:58.005Z,1.57
2019-03-17T09:03:45.947Z,1.93
2019-03-17T09:06:34.192Z,1.40
2019-03-17T09:09:22.405Z,1.63
2019-03-17T09:11:51.059Z,1.67
2019-03-17T09:14:19.635Z,1.90
2019-03-17T09:16:48.577Z,1.40
2019-03-17T09:19:36.887Z,1.70
2019-03-17T09:22:24.794Z,1.63
2019-03-17T09:24:53.539Z,1.63
2019-03-17T09:27:41.496Z,1.40
2019-03-17T09:30:29.492Z,1.70
2019-03-17T09:32:58.331Z,1.50
2019-03-17T09:35:27.233Z,1.67
2019-03-17T09:37:56.099Z,1.60
2019-03-17T09:40:24.967Z,1.30
2019-03-17T09:42:53.838Z,1.70
2019-03-17T09:45:22.935Z,1.57
2019-03-17T09:48:10.939Z,1.40
2019-03-17T09:50:39.795Z,1.33
2019-03-17T09:53:08.381Z,1.40
2019-03-17T09:55:37.010Z,1.30
2019-03-17T09:58:05.865Z,1.50
2019-03-17T10:00:34.808Z,1.97
2019-03-17T10:03:03.926Z,1.90
2019-03-17T10:05:32.788Z,2.20
2019-03-17T10:08:01.668Z,1.37
2019-03-17T10:10:49.841Z,1.60
2019-03-17T10:13:18.600Z,1.67
2019-03-17T10:15:47.485Z,1.40
2019-03-17T10:18:16.370Z,1.20
2019-03-17T10:20:44.975Z,1.37
2019-03-17T10:23:13.572Z,1.30
2019-03-17T10:25:42.671Z,1.33
2019-03-17T10:28:11.362Z,1.60
2019-03-17T10:30:40.125Z,1.20
2019-03-17T10:33:28.108Z,1.30
2019-03-17T10:35:57.021Z,1.43
2019-03-17T10:38:25.960Z,1.40
2019-03-17T10:40:54.813Z,1.00
2019-03-17T10:43:42.988Z,1.37
2019-03-17T10:46:11.589Z,1.50
2019-03-17T10:48:40.442Z,0.93
2019-03-17T10:51:09.576Z,1.30
2019-03-17T10:53:38.201Z,1.30
2019-03-17T10:56:06.812Z,1.10
2019-03-17T10:58:35.395Z,1.63
2019-03-17T11:01:04.244Z,1.30
2019-03-17T11:03:32.835Z,1.30
2019-03-17T11:06:02.019Z,1.57
2019-03-17T11:08:31.087Z,1.20
2019-03-17T11:11:19.049Z,1.17
2019-03-17T11:13:47.663Z,1.50
2019-03-17T11:16:16.561Z,1.00
2019-03-17T11:19:04.516Z,1.30
2019-03-17T11:21:33.135Z,1.03
2019-03-17T11:24:21.361Z,1.10
2019-03-17T11:26:50.240Z,1.27
2019-03-17T11:29:18.824Z,1.00
2019-03-17T11:31:47.459Z,1.23
2019-03-17T11:34:16.384Z,1.10
2019-03-17T11:36:45.369Z,1.30
2019-03-17T11:39:14.314Z,1.30
2019-03-17T11:41:43.026Z,1.03
2019-03-17T11:44:14.817Z,1.37
2019-03-17T11:47:02.896Z,1.33
2019-03-17T11:49:50.904Z,1.07
2019-03-17T11:52:39.255Z,1.00
2019-03-17T11:55:08.316Z,1.13
2019-03-17T11:57:37.415Z,1.10
2019-03-17T12:00:06.550Z,0.97
2019-03-17T12:02:35.166Z,1.20
2019-03-17T12:05:03.940Z,1.07
2019-03-17T12:07:32.924Z,0.90
2019-03-17T12:10:01.550Z,0.90
2019-03-17T12:12:30.870Z,1.03
2019-03-17T12:15:00.043Z,1.10
2019-03-17T12:17:29.043Z,1.27
2019-03-17T12:20:17.356Z,0.90
2019-03-17T12:22:46.005Z,1.53
2019-03-17T12:25:14.733Z,1.00
2019-03-17T12:27:43.409Z,1.10
2019-03-17T12:30:17.849Z,1.00
2019-03-17T12:33:05.464Z,0.97
2019-03-17T12:35:34.411Z,1.10
2019-03-17T12:38:22.607Z,1.27
2019-03-17T12:41:10.743Z,1.00
2019-03-17T12:43:58.745Z,0.90
2019-03-17T12:46:27.444Z,1.20
2019-03-17T12:49:15.862Z,1.00
2019-03-17T12:52:03.915Z,1.10
2019-03-17T12:54:51.910Z,1.17
2019-03-17T12:57:21.017Z,1.20
2019-03-17T12:59:49.711Z,1.10
2019-03-17T13:02:18.552Z,1.40
2019-03-17T13:07:21.275Z,1.13
2019-03-17T13:09:49.883Z,1.03
2019-03-17T13:12:37.844Z,0.93
2019-03-17T13:15:07.507Z,1.40
2019-03-17T13:17:48.233Z,1.20
2019-03-17T13:20:17.287Z,1.10
2019-03-17T13:22:46.209Z,1.07
2019-03-17T13:25:34.185Z,1.33
2019-03-17T13:28:02.847Z,1.43
2019-03-17T13:30:31.765Z,1.07
2019-03-17T13:33:00.456Z,1.10
2019-03-17T13:35:29.104Z,1.53
2019-03-17T13:38:17.147Z,0.97
2019-03-17T13:40:45.749Z,1.20
2019-03-17T13:43:14.361Z,1.00
2019-03-17T13:45:43.049Z,1.10
2019-03-17T13:48:12.377Z,1.20
2019-03-17T13:50:41.447Z,0.93
2019-03-17T13:53:10.125Z,1.17
2019-03-17T13:55:58.324Z,1.07
2019-03-17T13:58:46.683Z,1.13
2019-03-17T14:01:15.359Z,1.30
2019-03-17T14:03:43.977Z,1.07
2019-03-17T14:06:31.932Z,1.20
2019-03-17T14:09:00.668Z,1.10
2019-03-17T14:11:29.457Z,1.17
2019-03-17T14:13:58.440Z,1.30
2019-03-17T14:16:39.005Z,1.23
2019-03-17T14:19:07.645Z,1.40
2019-03-17T14:21:36.436Z,1.13
2019-03-17T14:24:05.215Z,1.30
2019-03-17T14:26:53.206Z,1.20
2019-03-17T14:29:22.092Z,1.13
2019-03-17T14:31:50.808Z,1.10
2019-03-17T14:37:32.877Z,1.10
2019-03-17T14:40:20.984Z,1.27
2019-03-17T14:43:09.163Z,1.17
2019-03-17T14:45:57.131Z,0.90
2019-03-17T14:48:45.273Z,0.87
2019-03-17T14:51:33.199Z,0.90
2019-03-17T14:54:21.144Z,1.17
2019-03-17T14:57:09.086Z,1.10
2019-03-17T14:59:57.276Z,1.13
2019-03-17T15:05:19.685Z,1.00
2019-03-17T15:08:07.949Z,1.20
2019-03-17T15:11:05.278Z,1.13
2019-03-17T15:16:32.199Z,1.23
2019-03-17T15:19:13.596Z,1.07
2019-03-17T15:21:54.724Z,1.07
2019-03-17T15:24:35.589Z,1.27
2019-03-17T15:27:16.937Z,1.00
2019-03-17T15:29:57.945Z,1.10
2019-03-17T15:32:38.889Z,1.40
2019-03-17T15:35:24.142Z,1.10
2019-03-17T15:38:04.775Z,1.27
2019-03-17T15:40:45.786Z,0.90
2019-03-17T15:46:16.171Z,1.40
2019-03-17T15:48:57.034Z,1.10
2019-03-17T15:51:38.143Z,1.20
2019-03-17T15:54:21.403Z,1.37
2019-03-17T15:57:01.976Z,1.30
2019-03-17T15:59:42.335Z,1.13
2019-03-17T16:02:23.060Z,1.53
2019-03-17T16:04:52.141Z,1.20
2019-03-17T16:07:20.990Z,1.20
2019-03-17T16:09:49.831Z,1.40
2019-03-17T16:12:18.618Z,1.20
2019-03-17T16:20:40.234Z,1.37
2019-03-17T16:23:09.361Z,1.40
2019-03-17T16:25:38.371Z,1.20
2019-03-17T16:31:27.994Z,1.67
2019-03-17T16:34:15.999Z,1.40
2019-03-17T16:37:04.003Z,1.43
2019-03-17T16:39:52.010Z,1.30
2019-03-17T16:42:39.971Z,1.10
2019-03-17T16:45:27.936Z,1.27
2019-03-17T16:48:15.840Z,1.97
2019-03-17T16:50:44.472Z,1.20
2019-03-17T16:53:32.415Z,1.50
2019-03-17T16:56:01.479Z,1.20
2019-03-17T16:58:30.432Z,1.50
2019-03-17T17:01:18.385Z,2.90
2019-03-17T17:04:14.167Z,1.90
2019-03-17T17:06:43.350Z,1.50
2019-03-17T17:09:12.041Z,1.20
2019-03-17T17:11:40.725Z,1.43
2019-03-17T17:14:28.665Z,1.13
2019-03-17T17:17:09.978Z,1.30
2019-03-17T17:19:38.653Z,1.13
2019-03-17T17:22:07.485Z,1.00
2019-03-17T17:24:55.410Z,1.27
2019-03-17T17:27:24.006Z,1.40
2019-03-17T17:29:52.608Z,1.17
2019-03-17T17:32:40.552Z,1.60
2019-03-17T17:35:28.512Z,1.60
2019-03-17T17:38:16.638Z,1.30
2019-03-17T17:40:45.236Z,1.73
2019-03-17T17:43:33.440Z,1.60
2019-03-17T17:46:21.395Z,1.30
2019-03-17T17:49:09.358Z,1.53
2019-03-17T17:51:57.284Z,1.97
2019-03-17T17:54:45.551Z,1.43
2019-03-17T17:57:33.491Z,1.50
2019-03-17T18:00:02.197Z,1.53
2019-03-17T18:02:59.620Z,1.50
2019-03-17T18:05:47.806Z,1.83
2019-03-17T18:08:16.505Z,1.53
2019-03-17T18:10:45.162Z,1.30
2019-03-17T18:13:14.243Z,1.20
2019-03-17T18:16:02.691Z,1.30
2019-03-17T18:18:31.340Z,1.50
2019-03-17T18:21:00.172Z,1.90
2019-03-17T18:23:29.712Z,2.03
2019-03-17T18:26:17.806Z,1.70
2019-03-17T18:29:05.737Z,1.53
2019-03-17T18:31:34.361Z,1.47
2019-03-17T18:34:22.572Z,1.73
2019-03-17T18:37:07.769Z,3.43
2019-03-17T18:39:22.518Z,2.10
2019-03-17T18:42:10.536Z,1.70
2019-03-17T18:44:39.147Z,1.73
2019-03-17T18:47:27.200Z,1.80
2019-03-17T18:49:55.845Z,2.83
2019-03-17T18:52:24.727Z,1.70
2019-03-17T18:54:53.480Z,1.67
2019-03-17T18:57:22.336Z,1.70
2019-03-17T19:00:11.786Z,1.60
2019-03-17T19:02:59.735Z,1.73
2019-03-17T19:05:47.765Z,1.97
2019-03-17T19:08:16.361Z,1.70
2019-03-17T19:10:44.957Z,2.10
2019-03-17T19:13:13.824Z,2.10
2019-03-17T19:15:42.832Z,1.70
2019-03-17T19:18:11.619Z,1.87
2019-03-17T19:20:40.478Z,2.00
2019-03-17T19:26:16.729Z,2.50
2019-03-17T19:28:45.449Z,1.60
2019-03-17T19:31:33.148Z,2.20
2019-03-17T19:34:20.868Z,2.13
2019-03-17T19:36:49.472Z,1.80
2019-03-17T19:39:39.541Z,2.37
2019-03-17T19:42:08.269Z,2.53
2019-03-17T19:44:37.234Z,2.20
2019-03-17T19:47:05.933Z,1.70
2019-03-17T19:49:35.407Z,2.80
2019-03-17T19:52:23.681Z,2.17
2019-03-17T19:58:00.287Z,2.63
2019-03-17T20:00:29.412Z,2.10
2019-03-17T20:03:17.452Z,23.00
2019-03-17T20:05:46.888Z,28.73
2019-03-17T20:08:15.876Z,30.07
2019-03-17T20:10:44.766Z,32.67
2019-03-17T20:13:33.000Z,23.40
2019-03-17T20:16:01.896Z,7.27
2019-03-17T20:18:30.549Z,3.23
2019-03-17T20:21:18.774Z,20.30
2019-03-17T20:23:47.596Z,13.40
2019-03-17T20:26:16.452Z,8.67
2019-03-17T20:28:49.261Z,3.40
2019-03-17T20:31:37.441Z,2.87
2019-03-17T20:34:46.541Z,2.20
2019-03-17T20:37:15.164Z,5.90
2019-03-17T20:39:43.843Z,4.67
2019-03-17T20:42:31.831Z,9.37
2019-03-17T20:45:20.649Z,7.30
2019-03-17T20:47:50.474Z,6.80
2019-03-17T20:50:19.095Z,11.40
2019-03-17T20:52:47.793Z,10.83
2019-03-17T20:55:16.429Z,5.67
2019-03-17T20:58:04.357Z,6.43
2019-03-17T21:00:34.075Z,2.80
2019-03-17T21:03:22.388Z,2.50
2019-03-17T21:05:51.010Z,1.80
2019-03-17T21:08:38.949Z,2.23
2019-03-17T21:11:08.178Z,2.07
2019-03-17T21:13:56.388Z,3.30
2019-03-17T21:16:44.700Z,3.20
2019-03-17T21:19:13.677Z,1.90
2019-03-17T21:22:01.756Z,2.00
2019-03-17T21:24:49.785Z,1.97
2019-03-17T21:27:18.483Z,4.13
2019-03-17T21:30:08.213Z,9.50
2019-03-17T21:32:56.302Z,5.73
2019-03-17T21:35:24.954Z,8.73
2019-03-17T21:38:12.888Z,5.87
2019-03-17T21:41:06.821Z,3.20
2019-03-17T21:43:59.372Z,2.90
2019-03-17T21:46:40.324Z,4.23
2019-03-17T21:49:09.360Z,4.60
2019-03-17T21:51:57.301Z,3.43
2019-03-17T21:54:45.422Z,3.90
2019-03-17T21:57:14.021Z,2.50
2019-03-17T22:00:02.060Z,4.13
2019-03-17T22:02:50.018Z,2.30
2019-03-17T22:05:38.017Z,8.30
2019-03-17T22:08:06.616Z,3.97
2019-03-17T22:10:35.504Z,3.80
2019-03-17T22:13:04.204Z,14.30
2019-03-17T22:15:52.205Z,7.20
2019-03-17T22:18:21.400Z,3.30
2019-03-17T22:20:50.060Z,2.63
2019-03-17T22:23:18.837Z,2.03
2019-03-17T22:26:07.693Z,1.90
2019-03-17T22:28:36.417Z,1.87
2019-03-17T22:31:24.333Z,2.40
2019-03-17T22:33:53.155Z,1.77
2019-03-17T22:36:22.270Z,2.40
2019-03-17T22:38:50.881Z,1.90
2019-03-17T22:41:19.745Z,1.70
2019-03-17T22:43:48.657Z,1.80
2019-03-17T22:46:36.592Z,2.07
2019-03-17T22:49:05.326Z,2.00
2019-03-17T22:51:33.932Z,1.90
2019-03-17T22:54:03.054Z,2.27
2019-03-17T22:56:50.983Z,2.20
2019-03-17T22:59:19.600Z,1.73
2019-03-17T23:02:07.525Z,1.83
2019-03-17T23:04:36.205Z,1.70
2019-03-17T23:07:04.840Z,1.87
2019-03-17T23:09:53.127Z,2.33
2019-03-17T23:12:41.336Z,2.40
2019-03-17T23:15:09.989Z,1.97
2019-03-17T23:17:50.399Z,2.00
2019-03-17T23:20:31.296Z,1.83
2019-03-17T23:23:12.185Z,1.87
2019-03-17T23:25:40.787Z,2.23
2019-03-17T23:28:09.651Z,2.10
2019-03-17T23:30:38.526Z,2.00
2019-03-17T23:33:07.112Z,1.93
2019-03-17T23:35:35.726Z,1.60
2019-03-17T23:38:04.704Z,2.20
2019-03-17T23:40:52.625Z,2.10
2019-03-17T23:43:21.223Z,2.20
2019-03-17T23:46:09.131Z,2.00
2019-03-17T23:48:37.820Z,2.00
2019-03-17T23:51:06.449Z,2.00
2019-03-17T23:53:35.328Z,1.87
2019-03-17T23:56:03.952Z,2.13
2019-03-17T23:58:32.833Z,1.90
